<?xml version="1.0" encoding="UTF-8" standalone="no" ?>
<gpx xmlns="http://www.topografix.com/GPX/1/1" xmlns:xsi="http://www.w3.org/2001/XMLSchema-instance" xsi:schemaLocation="http://www.topografix.com/GPX/1/1 http://www.topografix.com/GPX/1/1/gpx.xsd" version="1.1" creator="VisuGPX - https://www.visugpx.com">
  <metadata>
    <name>Traversée des Pyrénées 1/8</name>
    <desc><![CDATA[Partie 1/8 de la traversée des Pyrénées à ski.]]></desc>
  </metadata>
  <trk>
    <name><![CDATA[TPS1 05 FEB 2016]]></name>
    <trkseg>
      <trkpt lat="42.50015" lon="2.40928">
        <ele>1745.89</ele>
        <time>2017-02-05T07:00:56Z</time>
      </trkpt>
      <trkpt lat="42.50014" lon="2.40921">
        <ele>1745.41</ele>
        <time>2017-02-05T07:01:08Z</time>
      </trkpt>
      <trkpt lat="42.50017" lon="2.40893">
        <ele>1750.22</ele>
        <time>2017-02-05T07:01:38Z</time>
      </trkpt>
      <trkpt lat="42.49861" lon="2.40901">
        <ele>1756.47</ele>
        <time>2017-02-05T07:06:57Z</time>
      </trkpt>
      <trkpt lat="42.49771" lon="2.40961">
        <ele>1760.79</ele>
        <time>2017-02-05T07:08:52Z</time>
      </trkpt>
      <trkpt lat="42.49722" lon="2.41016">
        <ele>1764.64</ele>
        <time>2017-02-05T07:10:04Z</time>
      </trkpt>
      <trkpt lat="42.49676" lon="2.41013">
        <ele>1768.48</ele>
        <time>2017-02-05T07:11:00Z</time>
      </trkpt>
      <trkpt lat="42.4963" lon="2.40981">
        <ele>1771.85</ele>
        <time>2017-02-05T07:11:58Z</time>
      </trkpt>
      <trkpt lat="42.49628" lon="2.40979">
        <ele>1771.85</ele>
        <time>2017-02-05T07:12:01Z</time>
      </trkpt>
      <trkpt lat="42.49595" lon="2.40966">
        <ele>1775.69</ele>
        <time>2017-02-05T07:12:39Z</time>
      </trkpt>
      <trkpt lat="42.49591" lon="2.40965">
        <ele>1773.77</ele>
        <time>2017-02-05T07:12:43Z</time>
      </trkpt>
      <trkpt lat="42.49507" lon="2.40998">
        <ele>1780.5</ele>
        <time>2017-02-05T07:14:14Z</time>
      </trkpt>
      <trkpt lat="42.49466" lon="2.41007">
        <ele>1783.86</ele>
        <time>2017-02-05T07:15:07Z</time>
      </trkpt>
      <trkpt lat="42.49407" lon="2.41026">
        <ele>1788.19</ele>
        <time>2017-02-05T07:16:17Z</time>
      </trkpt>
      <trkpt lat="42.49371" lon="2.41043">
        <ele>1792.52</ele>
        <time>2017-02-05T07:17:11Z</time>
      </trkpt>
      <trkpt lat="42.49344" lon="2.4105">
        <ele>1795.88</ele>
        <time>2017-02-05T07:17:48Z</time>
      </trkpt>
      <trkpt lat="42.4934" lon="2.41051">
        <ele>1795.88</ele>
        <time>2017-02-05T07:17:53Z</time>
      </trkpt>
      <trkpt lat="42.49302" lon="2.41036">
        <ele>1799.73</ele>
        <time>2017-02-05T07:18:53Z</time>
      </trkpt>
      <trkpt lat="42.49256" lon="2.4109">
        <ele>1807.42</ele>
        <time>2017-02-05T07:24:07Z</time>
      </trkpt>
      <trkpt lat="42.49222" lon="2.41118">
        <ele>1810.78</ele>
        <time>2017-02-05T07:25:00Z</time>
      </trkpt>
      <trkpt lat="42.49184" lon="2.41142">
        <ele>1815.11</ele>
        <time>2017-02-05T07:25:56Z</time>
      </trkpt>
      <trkpt lat="42.49141" lon="2.41161">
        <ele>1820.39</ele>
        <time>2017-02-05T07:26:54Z</time>
      </trkpt>
      <trkpt lat="42.49112" lon="2.41162">
        <ele>1824.24</ele>
        <time>2017-02-05T07:27:34Z</time>
      </trkpt>
      <trkpt lat="42.49091" lon="2.41171">
        <ele>1828.08</ele>
        <time>2017-02-05T07:28:09Z</time>
      </trkpt>
      <trkpt lat="42.49058" lon="2.41215">
        <ele>1832.41</ele>
        <time>2017-02-05T07:29:05Z</time>
      </trkpt>
      <trkpt lat="42.48979" lon="2.41281">
        <ele>1839.14</ele>
        <time>2017-02-05T07:31:10Z</time>
      </trkpt>
      <trkpt lat="42.48929" lon="2.41319">
        <ele>1842.98</ele>
        <time>2017-02-05T07:32:20Z</time>
      </trkpt>
      <trkpt lat="42.48901" lon="2.41338">
        <ele>1846.35</ele>
        <time>2017-02-05T07:33:01Z</time>
      </trkpt>
      <trkpt lat="42.48875" lon="2.41353">
        <ele>1850.19</ele>
        <time>2017-02-05T07:33:41Z</time>
      </trkpt>
      <trkpt lat="42.48833" lon="2.41353">
        <ele>1855</ele>
        <time>2017-02-05T07:34:43Z</time>
      </trkpt>
      <trkpt lat="42.48796" lon="2.41333">
        <ele>1859.81</ele>
        <time>2017-02-05T07:35:41Z</time>
      </trkpt>
      <trkpt lat="42.48756" lon="2.41314">
        <ele>1863.65</ele>
        <time>2017-02-05T07:36:39Z</time>
      </trkpt>
      <trkpt lat="42.48729" lon="2.41298">
        <ele>1867.02</ele>
        <time>2017-02-05T07:37:19Z</time>
      </trkpt>
      <trkpt lat="42.48688" lon="2.41276">
        <ele>1871.34</ele>
        <time>2017-02-05T07:38:21Z</time>
      </trkpt>
      <trkpt lat="42.48659" lon="2.41267">
        <ele>1874.71</ele>
        <time>2017-02-05T07:39:00Z</time>
      </trkpt>
      <trkpt lat="42.48638" lon="2.41239">
        <ele>1878.07</ele>
        <time>2017-02-05T07:39:41Z</time>
      </trkpt>
      <trkpt lat="42.48612" lon="2.41235">
        <ele>1881.44</ele>
        <time>2017-02-05T07:40:26Z</time>
      </trkpt>
      <trkpt lat="42.48606" lon="2.41218">
        <ele>1885.28</ele>
        <time>2017-02-05T07:41:09Z</time>
      </trkpt>
      <trkpt lat="42.48592" lon="2.41199">
        <ele>1890.57</ele>
        <time>2017-02-05T07:41:46Z</time>
      </trkpt>
      <trkpt lat="42.48578" lon="2.41182">
        <ele>1893.93</ele>
        <time>2017-02-05T07:42:25Z</time>
      </trkpt>
      <trkpt lat="42.48569" lon="2.41161">
        <ele>1898.26</ele>
        <time>2017-02-05T07:43:01Z</time>
      </trkpt>
      <trkpt lat="42.48554" lon="2.41159">
        <ele>1903.07</ele>
        <time>2017-02-05T07:43:35Z</time>
      </trkpt>
      <trkpt lat="42.48543" lon="2.41186">
        <ele>1908.83</ele>
        <time>2017-02-05T07:44:24Z</time>
      </trkpt>
      <trkpt lat="42.48523" lon="2.41193">
        <ele>1914.12</ele>
        <time>2017-02-05T07:45:11Z</time>
      </trkpt>
      <trkpt lat="42.48502" lon="2.41191">
        <ele>1920.37</ele>
        <time>2017-02-05T07:45:59Z</time>
      </trkpt>
      <trkpt lat="42.48495" lon="2.41163">
        <ele>1925.18</ele>
        <time>2017-02-05T07:46:45Z</time>
      </trkpt>
      <trkpt lat="42.48497" lon="2.41139">
        <ele>1930.95</ele>
        <time>2017-02-05T07:47:31Z</time>
      </trkpt>
      <trkpt lat="42.48495" lon="2.41114">
        <ele>1935.75</ele>
        <time>2017-02-05T07:48:12Z</time>
      </trkpt>
      <trkpt lat="42.4849" lon="2.41089">
        <ele>1941.04</ele>
        <time>2017-02-05T07:48:57Z</time>
      </trkpt>
      <trkpt lat="42.48478" lon="2.41084">
        <ele>1945.85</ele>
        <time>2017-02-05T07:49:34Z</time>
      </trkpt>
      <trkpt lat="42.48475" lon="2.41064">
        <ele>1950.17</ele>
        <time>2017-02-05T07:50:09Z</time>
      </trkpt>
      <trkpt lat="42.48464" lon="2.41065">
        <ele>1955.46</ele>
        <time>2017-02-05T07:50:51Z</time>
      </trkpt>
      <trkpt lat="42.48459" lon="2.41051">
        <ele>1960.27</ele>
        <time>2017-02-05T07:51:35Z</time>
      </trkpt>
      <trkpt lat="42.48462" lon="2.41026">
        <ele>1965.55</ele>
        <time>2017-02-05T07:52:22Z</time>
      </trkpt>
      <trkpt lat="42.4845" lon="2.41032">
        <ele>1969.4</ele>
        <time>2017-02-05T07:52:59Z</time>
      </trkpt>
      <trkpt lat="42.48445" lon="2.41026">
        <ele>1972.76</ele>
        <time>2017-02-05T07:53:39Z</time>
      </trkpt>
      <trkpt lat="42.48446" lon="2.41002">
        <ele>1977.57</ele>
        <time>2017-02-05T07:54:39Z</time>
      </trkpt>
      <trkpt lat="42.48446" lon="2.40983">
        <ele>1981.9</ele>
        <time>2017-02-05T07:55:22Z</time>
      </trkpt>
      <trkpt lat="42.48445" lon="2.40967">
        <ele>1985.74</ele>
        <time>2017-02-05T07:56:01Z</time>
      </trkpt>
      <trkpt lat="42.48445" lon="2.40949">
        <ele>1989.59</ele>
        <time>2017-02-05T07:56:44Z</time>
      </trkpt>
      <trkpt lat="42.48446" lon="2.40933">
        <ele>1992.95</ele>
        <time>2017-02-05T07:57:24Z</time>
      </trkpt>
      <trkpt lat="42.48439" lon="2.40927">
        <ele>1996.8</ele>
        <time>2017-02-05T07:58:03Z</time>
      </trkpt>
      <trkpt lat="42.48431" lon="2.40916">
        <ele>2004.01</ele>
        <time>2017-02-05T07:59:25Z</time>
      </trkpt>
      <trkpt lat="42.48429" lon="2.40898">
        <ele>2008.81</ele>
        <time>2017-02-05T08:00:06Z</time>
      </trkpt>
      <trkpt lat="42.48427" lon="2.40879">
        <ele>2012.66</ele>
        <time>2017-02-05T08:00:45Z</time>
      </trkpt>
      <trkpt lat="42.48421" lon="2.40858">
        <ele>2016.5</ele>
        <time>2017-02-05T08:01:27Z</time>
      </trkpt>
      <trkpt lat="42.48412" lon="2.4084">
        <ele>2019.87</ele>
        <time>2017-02-05T08:02:06Z</time>
      </trkpt>
      <trkpt lat="42.4841" lon="2.40818">
        <ele>2023.23</ele>
        <time>2017-02-05T08:02:44Z</time>
      </trkpt>
      <trkpt lat="42.48411" lon="2.40796">
        <ele>2027.56</ele>
        <time>2017-02-05T08:03:25Z</time>
      </trkpt>
      <trkpt lat="42.48405" lon="2.40774">
        <ele>2031.4</ele>
        <time>2017-02-05T08:04:08Z</time>
      </trkpt>
      <trkpt lat="42.48405" lon="2.40741">
        <ele>2036.69</ele>
        <time>2017-02-05T08:05:08Z</time>
      </trkpt>
      <trkpt lat="42.4841" lon="2.4072">
        <ele>2040.54</ele>
        <time>2017-02-05T08:05:52Z</time>
      </trkpt>
      <trkpt lat="42.48419" lon="2.40704">
        <ele>2045.82</ele>
        <time>2017-02-05T08:06:37Z</time>
      </trkpt>
      <trkpt lat="42.48433" lon="2.40686">
        <ele>2050.63</ele>
        <time>2017-02-05T08:07:36Z</time>
      </trkpt>
      <trkpt lat="42.48441" lon="2.40677">
        <ele>2054.96</ele>
        <time>2017-02-05T08:08:15Z</time>
      </trkpt>
      <trkpt lat="42.48436" lon="2.40668">
        <ele>2059.76</ele>
        <time>2017-02-05T08:09:27Z</time>
      </trkpt>
      <trkpt lat="42.48417" lon="2.40657">
        <ele>2066.01</ele>
        <time>2017-02-05T08:10:07Z</time>
      </trkpt>
      <trkpt lat="42.4838" lon="2.40646">
        <ele>2081.87</ele>
        <time>2017-02-05T08:12:51Z</time>
      </trkpt>
      <trkpt lat="42.48353" lon="2.40658">
        <ele>2085.24</ele>
        <time>2017-02-05T08:20:29Z</time>
      </trkpt>
      <trkpt lat="42.48342" lon="2.40683">
        <ele>2091</ele>
        <time>2017-02-05T08:21:50Z</time>
      </trkpt>
      <trkpt lat="42.48342" lon="2.40683">
        <ele>2091</ele>
        <time>2017-02-05T08:21:51Z</time>
      </trkpt>
      <trkpt lat="42.48326" lon="2.4072">
        <ele>2097.25</ele>
        <time>2017-02-05T08:22:55Z</time>
      </trkpt>
      <trkpt lat="42.48326" lon="2.4072">
        <ele>2096.29</ele>
        <time>2017-02-05T08:22:56Z</time>
      </trkpt>
      <trkpt lat="42.48299" lon="2.40768">
        <ele>2100.62</ele>
        <time>2017-02-05T08:23:43Z</time>
      </trkpt>
      <trkpt lat="42.48285" lon="2.40828">
        <ele>2104.46</ele>
        <time>2017-02-05T08:24:50Z</time>
      </trkpt>
      <trkpt lat="42.4826" lon="2.40876">
        <ele>2110.23</ele>
        <time>2017-02-05T08:25:49Z</time>
      </trkpt>
      <trkpt lat="42.48258" lon="2.40879">
        <ele>2108.79</ele>
        <time>2017-02-05T08:25:53Z</time>
      </trkpt>
      <trkpt lat="42.48237" lon="2.40906">
        <ele>2112.15</ele>
        <time>2017-02-05T08:26:31Z</time>
      </trkpt>
      <trkpt lat="42.48198" lon="2.40936">
        <ele>2116.96</ele>
        <time>2017-02-05T08:27:31Z</time>
      </trkpt>
      <trkpt lat="42.48175" lon="2.40949">
        <ele>2120.32</ele>
        <time>2017-02-05T08:28:10Z</time>
      </trkpt>
      <trkpt lat="42.48148" lon="2.40976">
        <ele>2124.17</ele>
        <time>2017-02-05T08:28:51Z</time>
      </trkpt>
      <trkpt lat="42.4814" lon="2.40992">
        <ele>2127.53</ele>
        <time>2017-02-05T08:29:08Z</time>
      </trkpt>
      <trkpt lat="42.4813" lon="2.41008">
        <ele>2127.53</ele>
        <time>2017-02-05T08:29:25Z</time>
      </trkpt>
      <trkpt lat="42.48106" lon="2.41041">
        <ele>2131.38</ele>
        <time>2017-02-05T08:30:11Z</time>
      </trkpt>
      <trkpt lat="42.48075" lon="2.41079">
        <ele>2135.23</ele>
        <time>2017-02-05T08:31:07Z</time>
      </trkpt>
      <trkpt lat="42.48054" lon="2.41109">
        <ele>2138.59</ele>
        <time>2017-02-05T08:31:49Z</time>
      </trkpt>
      <trkpt lat="42.48018" lon="2.41147">
        <ele>2141.95</ele>
        <time>2017-02-05T08:32:51Z</time>
      </trkpt>
      <trkpt lat="42.47989" lon="2.41181">
        <ele>2145.32</ele>
        <time>2017-02-05T08:33:35Z</time>
      </trkpt>
      <trkpt lat="42.47987" lon="2.41184">
        <ele>2145.32</ele>
        <time>2017-02-05T08:33:39Z</time>
      </trkpt>
      <trkpt lat="42.47963" lon="2.41203">
        <ele>2148.68</ele>
        <time>2017-02-05T08:34:17Z</time>
      </trkpt>
      <trkpt lat="42.4794" lon="2.41225">
        <ele>2152.53</ele>
        <time>2017-02-05T08:35:03Z</time>
      </trkpt>
      <trkpt lat="42.47913" lon="2.41242">
        <ele>2158.78</ele>
        <time>2017-02-05T08:36:55Z</time>
      </trkpt>
      <trkpt lat="42.47907" lon="2.41246">
        <ele>2162.14</ele>
        <time>2017-02-05T08:37:12Z</time>
      </trkpt>
      <trkpt lat="42.47873" lon="2.41219">
        <ele>2184.25</ele>
        <time>2017-02-05T08:40:00Z</time>
      </trkpt>
      <trkpt lat="42.47848" lon="2.41205">
        <ele>2200.59</ele>
        <time>2017-02-05T08:42:24Z</time>
      </trkpt>
      <trkpt lat="42.47812" lon="2.41235">
        <ele>2204.44</ele>
        <time>2017-02-05T08:43:27Z</time>
      </trkpt>
      <trkpt lat="42.47798" lon="2.41249">
        <ele>2209.25</ele>
        <time>2017-02-05T08:44:04Z</time>
      </trkpt>
      <trkpt lat="42.47649" lon="2.413">
        <ele>2260.2</ele>
        <time>2017-02-05T08:50:42Z</time>
      </trkpt>
      <trkpt lat="42.47623" lon="2.41305">
        <ele>2261.64</ele>
        <time>2017-02-05T09:23:04Z</time>
      </trkpt>
      <trkpt lat="42.47588" lon="2.41297">
        <ele>2265</ele>
        <time>2017-02-05T09:24:53Z</time>
      </trkpt>
      <trkpt lat="42.47393" lon="2.41301">
        <ele>2269.33</ele>
        <time>2017-02-05T09:28:54Z</time>
      </trkpt>
      <trkpt lat="42.47355" lon="2.41296">
        <ele>2273.17</ele>
        <time>2017-02-05T09:29:46Z</time>
      </trkpt>
      <trkpt lat="42.47329" lon="2.41292">
        <ele>2277.5</ele>
        <time>2017-02-05T09:30:24Z</time>
      </trkpt>
      <trkpt lat="42.47316" lon="2.4129">
        <ele>2280.87</ele>
        <time>2017-02-05T09:30:43Z</time>
      </trkpt>
      <trkpt lat="42.47291" lon="2.41288">
        <ele>2285.19</ele>
        <time>2017-02-05T09:31:21Z</time>
      </trkpt>
      <trkpt lat="42.47275" lon="2.41286">
        <ele>2289.52</ele>
        <time>2017-02-05T09:31:48Z</time>
      </trkpt>
      <trkpt lat="42.47263" lon="2.41284">
        <ele>2293.84</ele>
        <time>2017-02-05T09:32:13Z</time>
      </trkpt>
      <trkpt lat="42.47244" lon="2.41282">
        <ele>2297.69</ele>
        <time>2017-02-05T09:33:20Z</time>
      </trkpt>
      <trkpt lat="42.47244" lon="2.41282">
        <ele>2297.69</ele>
        <time>2017-02-05T09:33:21Z</time>
      </trkpt>
      <trkpt lat="42.47219" lon="2.41276">
        <ele>2301.53</ele>
        <time>2017-02-05T09:37:21Z</time>
      </trkpt>
      <trkpt lat="42.47185" lon="2.41275">
        <ele>2305.38</ele>
        <time>2017-02-05T09:37:59Z</time>
      </trkpt>
      <trkpt lat="42.47123" lon="2.41295">
        <ele>2308.74</ele>
        <time>2017-02-05T09:39:22Z</time>
      </trkpt>
      <trkpt lat="42.47123" lon="2.41294">
        <ele>2305.38</ele>
        <time>2017-02-05T09:39:40Z</time>
      </trkpt>
      <trkpt lat="42.47066" lon="2.4131">
        <ele>2301.05</ele>
        <time>2017-02-05T09:40:40Z</time>
      </trkpt>
      <trkpt lat="42.47063" lon="2.41309">
        <ele>2301.05</ele>
        <time>2017-02-05T09:40:44Z</time>
      </trkpt>
      <trkpt lat="42.46909" lon="2.41253">
        <ele>2290</ele>
        <time>2017-02-05T09:43:17Z</time>
      </trkpt>
      <trkpt lat="42.46866" lon="2.4125">
        <ele>2284.71</ele>
        <time>2017-02-05T09:44:00Z</time>
      </trkpt>
      <trkpt lat="42.46865" lon="2.41249">
        <ele>2285.67</ele>
        <time>2017-02-05T09:44:06Z</time>
      </trkpt>
      <trkpt lat="42.46862" lon="2.41249">
        <ele>2284.71</ele>
        <time>2017-02-05T09:44:33Z</time>
      </trkpt>
      <trkpt lat="42.46774" lon="2.41292">
        <ele>2277.98</ele>
        <time>2017-02-05T09:45:52Z</time>
      </trkpt>
      <trkpt lat="42.46647" lon="2.41143">
        <ele>2268.85</ele>
        <time>2017-02-05T09:48:46Z</time>
      </trkpt>
      <trkpt lat="42.46647" lon="2.41144">
        <ele>2268.85</ele>
        <time>2017-02-05T09:48:47Z</time>
      </trkpt>
      <trkpt lat="42.46567" lon="2.41023">
        <ele>2267.41</ele>
        <time>2017-02-05T09:52:02Z</time>
      </trkpt>
      <trkpt lat="42.46371" lon="2.40748">
        <ele>2263.56</ele>
        <time>2017-02-05T09:58:36Z</time>
      </trkpt>
      <trkpt lat="42.46364" lon="2.40741">
        <ele>2266.93</ele>
        <time>2017-02-05T09:58:44Z</time>
      </trkpt>
      <trkpt lat="42.46342" lon="2.40719">
        <ele>2261.64</ele>
        <time>2017-02-05T09:59:10Z</time>
      </trkpt>
      <trkpt lat="42.46335" lon="2.40683">
        <ele>2242.89</ele>
        <time>2017-02-05T10:01:04Z</time>
      </trkpt>
      <trkpt lat="42.46303" lon="2.40401">
        <ele>2253.47</ele>
        <time>2017-02-05T10:05:46Z</time>
      </trkpt>
      <trkpt lat="42.46246" lon="2.40337">
        <ele>2257.79</ele>
        <time>2017-02-05T10:07:13Z</time>
      </trkpt>
      <trkpt lat="42.46174" lon="2.40243">
        <ele>2262.12</ele>
        <time>2017-02-05T10:09:47Z</time>
      </trkpt>
      <trkpt lat="42.46151" lon="2.40227">
        <ele>2262.6</ele>
        <time>2017-02-05T10:10:18Z</time>
      </trkpt>
      <trkpt lat="42.46101" lon="2.40211">
        <ele>2265.96</ele>
        <time>2017-02-05T10:11:13Z</time>
      </trkpt>
      <trkpt lat="42.46101" lon="2.40211">
        <ele>2265.96</ele>
        <time>2017-02-05T10:11:14Z</time>
      </trkpt>
      <trkpt lat="42.46053" lon="2.4019">
        <ele>2274.14</ele>
        <time>2017-02-05T10:12:26Z</time>
      </trkpt>
      <trkpt lat="42.46041" lon="2.40125">
        <ele>2268.85</ele>
        <time>2017-02-05T10:14:05Z</time>
      </trkpt>
      <trkpt lat="42.45941" lon="2.40008">
        <ele>2274.14</ele>
        <time>2017-02-05T10:16:45Z</time>
      </trkpt>
      <trkpt lat="42.45919" lon="2.39973">
        <ele>2273.66</ele>
        <time>2017-02-05T10:17:28Z</time>
      </trkpt>
      <trkpt lat="42.45877" lon="2.39839">
        <ele>2278.46</ele>
        <time>2017-02-05T10:19:57Z</time>
      </trkpt>
      <trkpt lat="42.45877" lon="2.39837">
        <ele>2277.02</ele>
        <time>2017-02-05T10:19:59Z</time>
      </trkpt>
      <trkpt lat="42.45864" lon="2.39803">
        <ele>2278.46</ele>
        <time>2017-02-05T10:22:31Z</time>
      </trkpt>
      <trkpt lat="42.4578" lon="2.397">
        <ele>2282.31</ele>
        <time>2017-02-05T10:25:39Z</time>
      </trkpt>
      <trkpt lat="42.45756" lon="2.39666">
        <ele>2285.67</ele>
        <time>2017-02-05T10:26:18Z</time>
      </trkpt>
      <trkpt lat="42.45713" lon="2.39612">
        <ele>2290.48</ele>
        <time>2017-02-05T10:30:49Z</time>
      </trkpt>
      <trkpt lat="42.45712" lon="2.3961">
        <ele>2289.04</ele>
        <time>2017-02-05T10:30:51Z</time>
      </trkpt>
      <trkpt lat="42.45694" lon="2.39573">
        <ele>2292.88</ele>
        <time>2017-02-05T10:31:53Z</time>
      </trkpt>
      <trkpt lat="42.45681" lon="2.39516">
        <ele>2293.36</ele>
        <time>2017-02-05T10:35:19Z</time>
      </trkpt>
      <trkpt lat="42.45686" lon="2.39442">
        <ele>2288.56</ele>
        <time>2017-02-05T10:36:35Z</time>
      </trkpt>
      <trkpt lat="42.45741" lon="2.39415">
        <ele>2271.73</ele>
        <time>2017-02-05T10:37:48Z</time>
      </trkpt>
      <trkpt lat="42.45741" lon="2.39415">
        <ele>2276.54</ele>
        <time>2017-02-05T10:37:49Z</time>
      </trkpt>
      <trkpt lat="42.4581" lon="2.39279">
        <ele>2280.87</ele>
        <time>2017-02-05T10:42:56Z</time>
      </trkpt>
      <trkpt lat="42.45886" lon="2.39175">
        <ele>2287.11</ele>
        <time>2017-02-05T10:46:36Z</time>
      </trkpt>
      <trkpt lat="42.45835" lon="2.39182">
        <ele>2297.69</ele>
        <time>2017-02-05T10:50:03Z</time>
      </trkpt>
      <trkpt lat="42.45782" lon="2.39223">
        <ele>2290.96</ele>
        <time>2017-02-05T10:51:28Z</time>
      </trkpt>
      <trkpt lat="42.45712" lon="2.39357">
        <ele>2277.02</ele>
        <time>2017-02-05T10:56:27Z</time>
      </trkpt>
      <trkpt lat="42.45698" lon="2.39379">
        <ele>2280.87</ele>
        <time>2017-02-05T10:56:56Z</time>
      </trkpt>
      <trkpt lat="42.45671" lon="2.39403">
        <ele>2284.71</ele>
        <time>2017-02-05T10:57:40Z</time>
      </trkpt>
      <trkpt lat="42.45644" lon="2.39419">
        <ele>2290.96</ele>
        <time>2017-02-05T10:59:21Z</time>
      </trkpt>
      <trkpt lat="42.45595" lon="2.39396">
        <ele>2285.67</ele>
        <time>2017-02-05T11:00:59Z</time>
      </trkpt>
      <trkpt lat="42.45491" lon="2.3927">
        <ele>2284.71</ele>
        <time>2017-02-05T11:03:20Z</time>
      </trkpt>
      <trkpt lat="42.45339" lon="2.39063">
        <ele>2268.37</ele>
        <time>2017-02-05T11:12:10Z</time>
      </trkpt>
      <trkpt lat="42.45339" lon="2.39063">
        <ele>2268.37</ele>
        <time>2017-02-05T11:12:12Z</time>
      </trkpt>
      <trkpt lat="42.45325" lon="2.38969">
        <ele>2242.41</ele>
        <time>2017-02-05T11:14:22Z</time>
      </trkpt>
      <trkpt lat="42.45216" lon="2.38782">
        <ele>2204.44</ele>
        <time>2017-02-05T11:21:56Z</time>
      </trkpt>
      <trkpt lat="42.45168" lon="2.38703">
        <ele>2202.04</ele>
        <time>2017-02-05T11:24:02Z</time>
      </trkpt>
      <trkpt lat="42.45168" lon="2.38703">
        <ele>2198.19</ele>
        <time>2017-02-05T11:24:03Z</time>
      </trkpt>
      <trkpt lat="42.45058" lon="2.38494">
        <ele>2180.41</ele>
        <time>2017-02-05T11:27:43Z</time>
      </trkpt>
      <trkpt lat="42.45057" lon="2.38494">
        <ele>2184.25</ele>
        <time>2017-02-05T11:27:44Z</time>
      </trkpt>
      <trkpt lat="42.45045" lon="2.38363">
        <ele>2173.68</ele>
        <time>2017-02-05T11:29:39Z</time>
      </trkpt>
      <trkpt lat="42.45035" lon="2.38074">
        <ele>2154.93</ele>
        <time>2017-02-05T11:32:56Z</time>
      </trkpt>
      <trkpt lat="42.45036" lon="2.38072">
        <ele>2154.93</ele>
        <time>2017-02-05T11:32:57Z</time>
      </trkpt>
      <trkpt lat="42.45082" lon="2.38017">
        <ele>2135.71</ele>
        <time>2017-02-05T11:33:42Z</time>
      </trkpt>
      <trkpt lat="42.45162" lon="2.37907">
        <ele>2109.75</ele>
        <time>2017-02-05T11:34:57Z</time>
      </trkpt>
      <trkpt lat="42.45201" lon="2.3785">
        <ele>2099.66</ele>
        <time>2017-02-05T11:35:39Z</time>
      </trkpt>
      <trkpt lat="42.45253" lon="2.37749">
        <ele>2093.41</ele>
        <time>2017-02-05T11:37:34Z</time>
      </trkpt>
      <trkpt lat="42.45293" lon="2.37668">
        <ele>2087.64</ele>
        <time>2017-02-05T11:38:43Z</time>
      </trkpt>
      <trkpt lat="42.45307" lon="2.37633">
        <ele>2084.28</ele>
        <time>2017-02-05T11:39:19Z</time>
      </trkpt>
      <trkpt lat="42.45312" lon="2.37576">
        <ele>2082.83</ele>
        <time>2017-02-05T11:40:07Z</time>
      </trkpt>
      <trkpt lat="42.45298" lon="2.37393">
        <ele>2067.93</ele>
        <time>2017-02-05T11:49:46Z</time>
      </trkpt>
      <trkpt lat="42.45289" lon="2.37338">
        <ele>2060.24</ele>
        <time>2017-02-05T11:50:19Z</time>
      </trkpt>
      <trkpt lat="42.45289" lon="2.37335">
        <ele>2063.61</ele>
        <time>2017-02-05T11:50:21Z</time>
      </trkpt>
      <trkpt lat="42.45282" lon="2.3731">
        <ele>2059.76</ele>
        <time>2017-02-05T11:50:41Z</time>
      </trkpt>
      <trkpt lat="42.45268" lon="2.37244">
        <ele>2055.44</ele>
        <time>2017-02-05T11:51:35Z</time>
      </trkpt>
      <trkpt lat="42.45264" lon="2.37135">
        <ele>2051.59</ele>
        <time>2017-02-05T11:52:52Z</time>
      </trkpt>
      <trkpt lat="42.45245" lon="2.37094">
        <ele>2045.82</ele>
        <time>2017-02-05T11:53:22Z</time>
      </trkpt>
      <trkpt lat="42.45164" lon="2.37054">
        <ele>2039.09</ele>
        <time>2017-02-05T11:54:57Z</time>
      </trkpt>
      <trkpt lat="42.45105" lon="2.36997">
        <ele>2033.81</ele>
        <time>2017-02-05T11:56:00Z</time>
      </trkpt>
      <trkpt lat="42.45072" lon="2.36992">
        <ele>2031.4</ele>
        <time>2017-02-05T11:56:28Z</time>
      </trkpt>
      <trkpt lat="42.44977" lon="2.37015">
        <ele>2026.6</ele>
        <time>2017-02-05T11:57:58Z</time>
      </trkpt>
      <trkpt lat="42.449" lon="2.36964">
        <ele>2020.35</ele>
        <time>2017-02-05T11:59:36Z</time>
      </trkpt>
      <trkpt lat="42.44887" lon="2.36946">
        <ele>2020.35</ele>
        <time>2017-02-05T11:59:56Z</time>
      </trkpt>
      <trkpt lat="42.44839" lon="2.36865">
        <ele>2013.62</ele>
        <time>2017-02-05T12:01:17Z</time>
      </trkpt>
      <trkpt lat="42.44837" lon="2.3686">
        <ele>2014.58</ele>
        <time>2017-02-05T12:01:21Z</time>
      </trkpt>
      <trkpt lat="42.44774" lon="2.36767">
        <ele>2010.73</ele>
        <time>2017-02-05T12:03:00Z</time>
      </trkpt>
      <trkpt lat="42.44775" lon="2.36749">
        <ele>2016.02</ele>
        <time>2017-02-05T12:13:11Z</time>
      </trkpt>
      <trkpt lat="42.44784" lon="2.36722">
        <ele>2007.85</ele>
        <time>2017-02-05T12:14:51Z</time>
      </trkpt>
      <trkpt lat="42.44787" lon="2.36711">
        <ele>2004.49</ele>
        <time>2017-02-05T12:14:54Z</time>
      </trkpt>
      <trkpt lat="42.44794" lon="2.36699">
        <ele>2000.64</ele>
        <time>2017-02-05T12:15:12Z</time>
      </trkpt>
      <trkpt lat="42.44803" lon="2.36676">
        <ele>1992.47</ele>
        <time>2017-02-05T12:15:29Z</time>
      </trkpt>
      <trkpt lat="42.44815" lon="2.36669">
        <ele>1988.62</ele>
        <time>2017-02-05T12:15:35Z</time>
      </trkpt>
      <trkpt lat="42.4483" lon="2.3666">
        <ele>1979.01</ele>
        <time>2017-02-05T12:15:51Z</time>
      </trkpt>
      <trkpt lat="42.44845" lon="2.36676">
        <ele>1981.9</ele>
        <time>2017-02-05T12:16:34Z</time>
      </trkpt>
      <trkpt lat="42.44856" lon="2.3669">
        <ele>1978.05</ele>
        <time>2017-02-05T12:16:40Z</time>
      </trkpt>
      <trkpt lat="42.44866" lon="2.3671">
        <ele>1973.24</ele>
        <time>2017-02-05T12:16:52Z</time>
      </trkpt>
      <trkpt lat="42.4488" lon="2.36722">
        <ele>1967.48</ele>
        <time>2017-02-05T12:17:41Z</time>
      </trkpt>
      <trkpt lat="42.44891" lon="2.36727">
        <ele>1964.59</ele>
        <time>2017-02-05T12:17:56Z</time>
      </trkpt>
      <trkpt lat="42.44897" lon="2.3673">
        <ele>1959.3</ele>
        <time>2017-02-05T12:18:11Z</time>
      </trkpt>
      <trkpt lat="42.44903" lon="2.36722">
        <ele>1953.06</ele>
        <time>2017-02-05T12:18:25Z</time>
      </trkpt>
      <trkpt lat="42.44911" lon="2.36722">
        <ele>1944.88</ele>
        <time>2017-02-05T12:18:51Z</time>
      </trkpt>
      <trkpt lat="42.44919" lon="2.36724">
        <ele>1941.52</ele>
        <time>2017-02-05T12:19:53Z</time>
      </trkpt>
      <trkpt lat="42.44932" lon="2.36716">
        <ele>1928.06</ele>
        <time>2017-02-05T12:20:28Z</time>
      </trkpt>
      <trkpt lat="42.44936" lon="2.36714">
        <ele>1921.33</ele>
        <time>2017-02-05T12:20:41Z</time>
      </trkpt>
      <trkpt lat="42.44941" lon="2.36714">
        <ele>1915.56</ele>
        <time>2017-02-05T12:20:47Z</time>
      </trkpt>
      <trkpt lat="42.44987" lon="2.367">
        <ele>1911.24</ele>
        <time>2017-02-05T12:21:33Z</time>
      </trkpt>
      <trkpt lat="42.44974" lon="2.36688">
        <ele>1907.39</ele>
        <time>2017-02-05T12:21:46Z</time>
      </trkpt>
      <trkpt lat="42.44964" lon="2.36657">
        <ele>1910.76</ele>
        <time>2017-02-05T12:28:10Z</time>
      </trkpt>
      <trkpt lat="42.44962" lon="2.36622">
        <ele>1910.28</ele>
        <time>2017-02-05T12:30:32Z</time>
      </trkpt>
      <trkpt lat="42.44955" lon="2.36568">
        <ele>1906.91</ele>
        <time>2017-02-05T12:31:08Z</time>
      </trkpt>
      <trkpt lat="42.44947" lon="2.36529">
        <ele>1906.91</ele>
        <time>2017-02-05T12:31:33Z</time>
      </trkpt>
      <trkpt lat="42.44939" lon="2.36497">
        <ele>1903.07</ele>
        <time>2017-02-05T12:31:57Z</time>
      </trkpt>
      <trkpt lat="42.44923" lon="2.36429">
        <ele>1899.7</ele>
        <time>2017-02-05T12:32:44Z</time>
      </trkpt>
      <trkpt lat="42.44917" lon="2.36396">
        <ele>1899.7</ele>
        <time>2017-02-05T12:33:07Z</time>
      </trkpt>
      <trkpt lat="42.44907" lon="2.36376">
        <ele>1899.7</ele>
        <time>2017-02-05T12:33:23Z</time>
      </trkpt>
      <trkpt lat="42.44886" lon="2.36358">
        <ele>1894.9</ele>
        <time>2017-02-05T12:33:44Z</time>
      </trkpt>
      <trkpt lat="42.44824" lon="2.36306">
        <ele>1889.61</ele>
        <time>2017-02-05T12:34:44Z</time>
      </trkpt>
      <trkpt lat="42.44813" lon="2.36293">
        <ele>1888.65</ele>
        <time>2017-02-05T12:34:53Z</time>
      </trkpt>
      <trkpt lat="42.44775" lon="2.3629">
        <ele>1885.28</ele>
        <time>2017-02-05T12:35:22Z</time>
      </trkpt>
      <trkpt lat="42.44748" lon="2.36265">
        <ele>1886.24</ele>
        <time>2017-02-05T12:36:48Z</time>
      </trkpt>
      <trkpt lat="42.44777" lon="2.36124">
        <ele>1884.32</ele>
        <time>2017-02-05T12:38:51Z</time>
      </trkpt>
      <trkpt lat="42.447" lon="2.35845">
        <ele>1890.57</ele>
        <time>2017-02-05T12:44:12Z</time>
      </trkpt>
      <trkpt lat="42.44659" lon="2.35812">
        <ele>1894.9</ele>
        <time>2017-02-05T12:45:12Z</time>
      </trkpt>
      <trkpt lat="42.44641" lon="2.35752">
        <ele>1898.26</ele>
        <time>2017-02-05T12:46:09Z</time>
      </trkpt>
      <trkpt lat="42.4464" lon="2.35747">
        <ele>1898.26</ele>
        <time>2017-02-05T12:46:14Z</time>
      </trkpt>
      <trkpt lat="42.44558" lon="2.35723">
        <ele>1899.22</ele>
        <time>2017-02-05T12:48:39Z</time>
      </trkpt>
    </trkseg>
  </trk>
</gpx>